Time;durP1;ratioP1;P1;durP2;ratioP2;P2;SDS_P1;SDS_P2;PMS_P1;PMS_P2;Temp;Humidity;BMP_temperature;BMP_pressure;BME280_temperature;BME280_humidity;BME280_pressure;Samples;Min_cycle;Max_cycle;Signal;HPM_P1;HPM_P2
2021/06/30 00:02:24;;;;;;;15.15;6.78;;;24.30;87.00;;;;;;5075213;28;20104;-61
2021/06/30 00:04:50;;;;;;;14.60;5.80;;;24.30;85.00;;;;;;5073317;28;20103;-60
2021/06/30 00:07:16;;;;;;;10.45;5.65;;;24.30;87.50;;;;;;5073737;28;20039;-62
2021/06/30 00:09:42;;;;;;;14.40;5.32;;;24.30;90.30;;;;;;5074207;28;20038;-60
2021/06/30 00:12:07;;;;;;;12.05;5.72;;;24.30;88.70;;;;;;5055155;28;20032;-60
2021/06/30 00:14:34;;;;;;;17.05;5.63;;;24.40;89.30;;;;;;5056310;28;20472;-59
2021/06/30 00:17:00;;;;;;;19.83;6.13;;;24.30;88.00;;;;;;5073834;28;20032;-61
2021/06/30 00:19:27;;;;;;;13.63;5.68;;;24.20;84.90;;;;;;5074540;28;20028;-62
2021/06/30 00:21:54;;;;;;;12.35;5.88;;;24.20;83.30;;;;;;5073735;28;20025;-62
2021/06/30 00:24:19;;;;;;;19.38;6.45;;;24.20;85.50;;;;;;5073765;28;20418;-63
2021/06/30 00:26:47;;;;;;;11.95;5.72;;;24.20;84.20;;;;;;5071609;28;20041;-63
2021/06/30 00:29:12;;;;;;;13.63;5.70;;;24.30;83.40;;;;;;5073770;28;20071;-62
2021/06/30 00:31:38;;;;;;;13.98;5.18;;;24.40;80.40;;;;;;5067239;28;20638;-62
2021/06/30 00:34:04;;;;;;;15.98;5.72;;;24.60;82.90;;;;;;5032804;28;20037;-60
2021/06/30 00:36:33;;;;;;;15.40;5.97;;;24.40;84.20;;;;;;5074231;28;20040;-61
2021/06/30 00:39:00;;;;;;;14.88;5.90;;;24.50;82.90;;;;;;5072261;28;20438;-60
2021/06/30 00:41:27;;;;;;;16.52;5.72;;;24.20;87.10;;;;;;5082025;28;20499;-62
2021/06/30 00:43:53;;;;;;;15.30;6.60;;;24.10;87.30;;;;;;5094171;28;20051;-65
2021/06/30 00:46:31;;;;;;;14.48;5.30;;;23.90;88.40;;;;;;5093824;28;20032;-65
2021/06/30 00:48:57;;;;;;;20.98;5.25;;;24.00;82.80;;;;;;5065164;28;20058;-61
2021/06/30 00:51:24;;;;;;;14.35;4.97;;;24.10;83.70;;;;;;5054948;28;20072;-62
2021/06/30 00:53:51;;;;;;;9.40;6.30;;;24.00;83.40;;;;;;5050041;28;20041;-64
2021/06/30 00:56:22;;;;;;;11.93;5.45;;;23.90;93.70;;;;;;5051851;28;20056;-64
2021/06/30 00:58:53;;;;;;;11.85;5.30;;;24.00;91.30;;;;;;5046540;28;20041;-64
2021/06/30 01:01:20;;;;;;;17.63;6.22;;;23.90;90.00;;;;;;5038832;28;20029;-63
2021/06/30 01:03:46;;;;;;;14.82;6.85;;;23.90;89.60;;;;;;5040573;28;20508;-62
2021/06/30 01:06:12;;;;;;;18.23;5.95;;;23.90;87.70;;;;;;5034256;28;20116;-70
2021/06/30 01:08:39;;;;;;;17.27;6.05;;;23.90;97.80;;;;;;5031656;28;20041;-60
2021/06/30 01:11:05;;;;;;;17.08;6.60;;;23.80;91.80;;;;;;5031246;28;20543;-65
2021/06/30 01:13:31;;;;;;;19.70;7.30;;;23.80;91.90;;;;;;5031330;28;20120;-63
2021/06/30 01:15:56;;;;;;;16.67;7.85;;;23.80;93.20;;;;;;5031730;28;20104;-65
2021/06/30 01:18:23;;;;;;;16.42;6.60;;;23.80;93.70;;;;;;5031398;28;20045;-63
2021/06/30 01:20:50;;;;;;;17.40;7.03;;;23.80;93.70;;;;;;5032301;28;20041;-65
2021/06/30 01:23:16;;;;;;;15.88;6.13;;;23.80;94.90;;;;;;5044511;28;20022;-67
2021/06/30 01:25:42;;;;;;;17.73;6.47;;;23.80;95.00;;;;;;5055965;28;20035;-67
2021/06/30 01:28:08;;;;;;;18.80;7.13;;;23.80;97.00;;;;;;5069139;28;20021;-63
2021/06/30 01:30:34;;;;;;;14.02;6.53;;;23.80;94.90;;;;;;5053017;28;20029;-65
2021/06/30 01:33:00;;;;;;;16.20;7.38;;;23.80;98.00;;;;;;5052892;28;20368;-67
2021/06/30 01:35:26;;;;;;;17.05;6.32;;;23.50;88.00;;;;;;5064254;28;20066;-62
2021/06/30 01:37:53;;;;;;;13.38;6.20;;;23.60;88.20;;;;;;5037107;28;20032;-63
2021/06/30 01:40:20;;;;;;;17.77;6.97;;;23.60;88.70;;;;;;5021784;28;20057;-65
2021/06/30 01:42:48;;;;;;;14.88;6.70;;;23.40;89.80;;;;;;4988394;28;20068;-62
2021/06/30 01:45:14;;;;;;;14.60;7.05;;;23.50;88.60;;;;;;5020353;28;20037;-65
2021/06/30 01:47:40;;;;;;;14.73;6.00;;;23.50;88.80;;;;;;5054064;28;20045;-67
2021/06/30 01:50:10;;;;;;;14.25;6.57;;;23.40;89.20;;;;;;5070659;28;20044;-67
2021/06/30 01:52:36;;;;;;;14.90;6.22;;;23.50;88.20;;;;;;5021452;28;20036;-63
2021/06/30 01:55:04;;;;;;;14.10;6.85;;;23.60;87.90;;;;;;5037596;28;20112;-64
2021/06/30 01:57:30;;;;;;;22.70;6.47;;;23.50;89.40;;;;;;5070989;28;20048;-60
2021/06/30 01:59:56;;;;;;;11.40;6.15;;;23.50;88.10;;;;;;5071091;28;20479;-66
2021/06/30 02:02:25;;;;;;;19.50;6.60;;;23.50;87.70;;;;;;5071175;28;20029;-61
2021/06/30 02:05:11;;;;;;;15.05;5.85;;;23.50;86.60;;;;;;5070856;28;20489;-65
2021/06/30 02:07:38;;;;;;;18.20;5.40;;;23.50;86.90;;;;;;5023874;28;20061;-69
2021/06/30 02:10:09;;;;;;;13.77;5.38;;;23.70;85.10;;;;;;5005131;28;20140;-61
2021/06/30 02:12:36;;;;;;;13.70;5.85;;;23.80;84.00;;;;;;5010755;28;20038;-61
2021/06/30 02:15:05;;;;;;;14.43;5.90;;;23.60;85.30;;;;;;5011198;28;20560;-66
2021/06/30 02:17:32;;;;;;;17.48;5.25;;;23.70;83.90;;;;;;5011291;28;20564;-66
2021/06/30 02:19:57;;;;;;;16.90;5.53;;;23.80;83.60;;;;;;5011371;28;20080;-68
2021/06/30 02:22:24;;;;;;;17.10;5.65;;;23.90;83.20;;;;;;5011335;28;20026;-63
2021/06/30 02:24:49;;;;;;;20.75;4.80;;;23.90;84.70;;;;;;5011126;28;20092;-65
2021/06/30 02:27:16;;;;;;;16.20;4.90;;;;;;;;;;5027462;28;20567;-69
2021/06/30 02:29:42;;;;;;;16.63;5.30;;;24.60;79.30;;;;;;5011199;28;20038;-62
2021/06/30 02:32:08;;;;;;;14.50;5.20;;;24.60;81.50;;;;;;4976467;28;20050;-59
2021/06/30 02:34:34;;;;;;;16.33;5.82;;;24.50;80.40;;;;;;4990131;28;20124;-64
2021/06/30 02:37:00;;;;;;;13.52;5.20;;;24.50;80.40;;;;;;4993356;28;20056;-65
2021/06/30 02:39:26;;;;;;;16.55;5.85;;;24.50;80.90;;;;;;5009848;28;20560;-62
2021/06/30 02:41:52;;;;;;;18.48;5.03;;;24.30;81.50;;;;;;4995211;28;20109;-64
2021/06/30 02:44:18;;;;;;;15.35;4.88;;;24.40;80.30;;;;;;4998039;28;20487;-63
2021/06/30 02:46:44;;;;;;;13.20;5.13;;;24.30;81.10;;;;;;5072201;28;20024;-67
2021/06/30 02:49:09;;;;;;;20.42;5.68;;;24.00;81.50;;;;;;5072521;28;20055;-62
2021/06/30 02:51:35;;;;;;;16.02;5.30;;;24.00;81.30;;;;;;5072710;28;20027;-63
2021/06/30 02:54:01;;;;;;;14.10;5.07;;;23.90;81.50;;;;;;5072431;28;20472;-64
2021/06/30 02:56:27;;;;;;;24.42;5.70;;;23.80;81.70;;;;;;5020871;28;20389;-66
2021/06/30 02:58:52;;;;;;;15.80;4.85;;;23.60;82.00;;;;;;5053908;28;20395;-64
2021/06/30 03:01:18;;;;;;;19.05;5.25;;;23.70;80.80;;;;;;5072832;28;20646;-69
2021/06/30 03:03:44;;;;;;;16.48;5.53;;;23.60;80.90;;;;;;5076140;28;20027;-62
2021/06/30 03:06:10;;;;;;;19.42;5.43;;;23.80;80.10;;;;;;5076048;28;20029;-66
2021/06/30 03:08:36;;;;;;;19.38;5.03;;;23.90;80.00;;;;;;5074423;28;20082;-61
2021/06/30 03:11:03;;;;;;;17.52;5.25;;;23.90;80.10;;;;;;5073714;28;20531;-67
2021/06/30 03:13:28;;;;;;;11.52;4.03;;;23.80;80.30;;;;;;5086608;28;20029;-59
2021/06/30 03:15:54;;;;;;;21.98;5.13;;;23.80;79.70;;;;;;5071223;28;20085;-62
2021/06/30 03:18:20;;;;;;;20.35;4.57;;;23.80;80.10;;;;;;5063325;28;20041;-61
2021/06/30 03:20:47;;;;;;;19.88;6.13;;;23.80;79.80;;;;;;5034804;28;20123;-67
2021/06/30 03:23:13;;;;;;;18.70;4.97;;;23.80;79.70;;;;;;5065085;28;20361;-65
2021/06/30 03:25:39;;;;;;;20.98;4.68;;;23.80;79.40;;;;;;5055650;28;20033;-67
2021/06/30 03:28:06;;;;;;;15.38;4.43;;;23.80;79.50;;;;;;5055806;28;20052;-69
2021/06/30 03:30:34;;;;;;;17.50;4.47;;;23.80;79.80;;;;;;5055823;28;20040;-68
2021/06/30 03:33:01;;;;;;;15.27;4.65;;;23.70;80.40;;;;;;5053675;28;20124;-59
2021/06/30 03:35:27;;;;;;;12.23;5.22;;;23.70;80.70;;;;;;5055241;28;20053;-63
2021/06/30 03:37:53;;;;;;;20.85;4.68;;;23.60;82.60;;;;;;5055333;28;20017;-64
2021/06/30 03:40:19;;;;;;;14.48;4.78;;;23.60;83.00;;;;;;5055439;28;20158;-62
2021/06/30 03:42:45;;;;;;;13.02;4.80;;;23.40;84.60;;;;;;5036791;28;20116;-64
2021/06/30 03:45:11;;;;;;;13.65;3.88;;;23.40;85.10;;;;;;5055353;28;20029;-67
2021/06/30 03:47:36;;;;;;;17.17;5.63;;;23.40;85.10;;;;;;5054933;28;20427;-60
2021/06/30 03:50:03;;;;;;;18.33;5.95;;;23.50;84.10;;;;;;5053080;28;20033;-65
2021/06/30 03:52:29;;;;;;;14.95;5.13;;;23.60;82.70;;;;;;5053140;28;20041;-68
2021/06/30 03:54:55;;;;;;;19.88;5.20;;;23.70;83.30;;;;;;5053175;28;20033;-63
2021/06/30 03:57:21;;;;;;;20.05;4.68;;;23.80;83.20;;;;;;5019681;28;20052;-64
2021/06/30 03:59:47;;;;;;;18.70;4.45;;;23.90;82.90;;;;;;5036158;28;20037;-62
2021/06/30 04:02:13;;;;;;;12.63;4.03;;;24.00;81.50;;;;;;5060766;28;20021;-65
2021/06/30 04:04:39;;;;;;;16.67;5.75;;;23.70;84.40;;;;;;5053581;28;20128;-62
2021/06/30 04:07:05;;;;;;;12.18;4.53;;;23.40;85.90;;;;;;5072714;28;20119;-61
2021/06/30 04:09:31;;;;;;;12.73;4.75;;;23.20;86.40;;;;;;5071148;28;20036;-64
2021/06/30 04:11:57;;;;;;;14.43;4.60;;;23.20;86.90;;;;;;5058251;28;20050;-63
2021/06/30 04:14:23;;;;;;;14.50;4.45;;;23.10;87.30;;;;;;5059866;28;20025;-65
2021/06/30 04:16:49;;;;;;;13.98;4.78;;;22.90;88.70;;;;;;5054174;28;20075;-60
2021/06/30 04:19:15;;;;;;;13.70;4.97;;;22.80;89.30;;;;;;5018934;28;20064;-59
2021/06/30 04:21:40;;;;;;;16.30;5.18;;;22.70;89.80;;;;;;5046343;28;20491;-64
2021/06/30 04:24:09;;;;;;;18.08;4.47;;;22.80;90.00;;;;;;5062106;28;20025;-59
2021/06/30 04:26:36;;;;;;;11.02;4.28;;;23.00;89.00;;;;;;5057892;28;20418;-63
2021/06/30 04:29:03;;;;;;;11.88;4.47;;;23.10;88.60;;;;;;5071693;28;20036;-62
2021/06/30 04:31:30;;;;;;;12.40;4.47;;;23.10;88.90;;;;;;5064950;28;20036;-59
2021/06/30 04:33:55;;;;;;;13.50;5.00;;;23.20;89.60;;;;;;5061330;28;20052;-64
2021/06/30 04:36:21;;;;;;;13.07;4.95;;;23.20;89.90;;;;;;5059013;28;20456;-64
2021/06/30 04:38:48;;;;;;;15.68;4.97;;;;;;;;;;5064631;28;20025;-65
2021/06/30 04:41:13;;;;;;;16.38;5.70;;;23.50;88.90;;;;;;5040872;28;20053;-67
2021/06/30 04:43:39;;;;;;;14.10;4.82;;;23.70;90.00;;;;;;5054343;28;20029;-68
2021/06/30 04:46:07;;;;;;;15.93;5.40;;;23.90;89.40;;;;;;5072236;28;20032;-68
2021/06/30 04:48:34;;;;;;;20.00;7.07;;;24.20;88.40;;;;;;5074176;28;20021;-63
2021/06/30 04:51:01;;;;;;;17.10;5.60;;;24.30;87.20;;;;;;5069167;28;20031;-65
2021/06/30 04:53:27;;;;;;;19.75;5.57;;;;;;;;;;5045684;28;20048;-63
2021/06/30 04:55:54;;;;;;;16.77;5.20;;;;;;;;;;5043366;28;20116;-65
2021/06/30 04:58:20;;;;;;;19.17;6.43;;;24.70;86.50;;;;;;5053892;28;20064;-67
2021/06/30 05:00:47;;;;;;;13.80;5.05;;;24.90;86.00;;;;;;5039107;28;20472;-61
2021/06/30 05:03:13;;;;;;;18.77;5.75;;;;;;;;;;5064141;28;20028;-68
2021/06/30 05:05:39;;;;;;;13.48;4.47;;;;;;;;;;5061432;28;20033;-65
2021/06/30 05:08:05;;;;;;;15.98;4.90;;;25.60;84.40;;;;;;5053648;28;20120;-62
2021/06/30 05:10:31;;;;;;;21.20;6.22;;;25.70;85.10;;;;;;5053819;28;20100;-66
2021/06/30 05:12:57;;;;;;;22.33;5.95;;;26.00;85.30;;;;;;5065156;28;20035;-62
2021/06/30 05:15:23;;;;;;;19.05;6.05;;;26.20;93.80;;;;;;5064297;28;20025;-59
2021/06/30 05:17:50;;;;;;;18.40;5.63;;;26.30;83.50;;;;;;5065071;28;20025;-68
2021/06/30 05:20:16;;;;;;;23.75;5.40;;;26.50;82.60;;;;;;5061954;28;20353;-63
2021/06/30 05:22:42;;;;;;;15.63;4.63;;;26.60;81.90;;;;;;5063192;28;20042;-64
2021/06/30 05:25:08;;;;;;;10.50;4.53;;;;;;;;;;5062950;28;20025;-59
2021/06/30 05:27:34;;;;;;;15.52;5.18;;;27.00;99.40;;;;;;5061927;28;20060;-63
2021/06/30 05:30:00;;;;;;;12.00;5.05;;;27.10;78.90;;;;;;5063308;28;20059;-64
2021/06/30 05:32:26;;;;;;;15.43;5.50;;;27.30;78.80;;;;;;5063214;28;20029;-64
2021/06/30 05:34:52;;;;;;;15.63;5.38;;;;;;;;;;5061573;28;20083;-70
2021/06/30 05:37:18;;;;;;;17.42;4.38;;;27.60;78.10;;;;;;5063420;28;20024;-65
2021/06/30 05:39:43;;;;;;;13.32;5.18;;;27.70;75.30;;;;;;5062971;28;20412;-63
2021/06/30 05:42:09;;;;;;;14.63;4.43;;;27.90;78.70;;;;;;5061918;28;20048;-64
2021/06/30 05:44:36;;;;;;;13.65;4.18;;;28.10;76.00;;;;;;5063582;28;20017;-61
2021/06/30 05:47:02;;;;;;;16.88;7.00;;;28.30;77.60;;;;;;5069619;28;20036;-65
2021/06/30 05:49:27;;;;;;;13.90;4.80;;;28.50;78.20;;;;;;5093235;28;20028;-65
2021/06/30 05:51:53;;;;;;;13.23;4.35;;;28.80;76.10;;;;;;5093441;28;20095;-63
2021/06/30 05:54:19;;;;;;;12.57;4.07;;;28.90;76.30;;;;;;5093348;28;20051;-63
2021/06/30 05:56:45;;;;;;;15.88;4.70;;;28.90;76.40;;;;;;5093613;28;20055;-61
2021/06/30 05:59:11;;;;;;;11.85;4.38;;;28.90;75.70;;;;;;5093522;28;20028;-65
2021/06/30 06:01:36;;;;;;;15.88;4.75;;;28.90;76.80;;;;;;5077327;28;20081;-63
2021/06/30 06:04:02;;;;;;;14.55;4.80;;;29.00;76.10;;;;;;5064375;28;20029;-65
2021/06/30 06:06:28;;;;;;;17.67;5.22;;;29.00;75.50;;;;;;5055764;28;20060;-65
2021/06/30 06:08:54;;;;;;;18.45;6.10;;;29.00;75.80;;;;;;5063283;28;20055;-68
2021/06/30 06:11:20;;;;;;;14.63;4.65;;;29.10;75.20;;;;;;5071536;28;20075;-65
2021/06/30 06:13:46;;;;;;;17.75;5.55;;;29.20;74.50;;;;;;5070161;28;20380;-66
2021/06/30 06:16:14;;;;;;;18.92;5.10;;;29.40;75.50;;;;;;5066789;28;20021;-64
2021/06/30 06:18:41;;;;;;;10.75;5.25;;;29.50;72.60;;;;;;5064794;28;20033;-66
2021/06/30 06:21:07;;;;;;;13.82;5.00;;;29.70;72.90;;;;;;5060599;28;20532;-63
2021/06/30 06:23:33;;;;;;;15.98;4.53;;;29.80;71.80;;;;;;5065587;28;20029;-63
2021/06/30 06:25:58;;;;;;;17.67;5.47;;;30.00;71.40;;;;;;5062648;28;20032;-63
2021/06/30 06:28:29;;;;;;;13.80;5.22;;;30.20;71.20;;;;;;5061090;28;20021;-61
2021/06/30 06:30:55;;;;;;;15.47;4.80;;;30.10;71.50;;;;;;5065972;28;20141;-63
2021/06/30 06:33:21;;;;;;;15.25;5.00;;;30.30;71.90;;;;;;5064928;28;20505;-60
2021/06/30 06:35:47;;;;;;;16.90;4.90;;;30.30;70.50;;;;;;5065119;28;20044;-63
2021/06/30 06:38:14;;;;;;;21.75;5.70;;;30.50;71.20;;;;;;5067950;28;20017;-63
2021/06/30 06:40:41;;;;;;;17.80;4.32;;;30.60;71.20;;;;;;5068068;28;20558;-62
2021/06/30 06:43:08;;;;;;;13.32;4.30;;;30.80;66.50;;;;;;5070905;28;20033;-61
2021/06/30 06:45:35;;;;;;;15.80;4.53;;;30.90;68.80;;;;;;5056499;28;20029;-61
2021/06/30 06:48:00;;;;;;;20.60;4.85;;;30.90;67.70;;;;;;5056009;28;20033;-67
2021/06/30 06:50:26;;;;;;;18.85;4.10;;;31.00;68.60;;;;;;5056551;28;20465;-65
2021/06/30 06:52:52;;;;;;;21.02;4.00;;;31.10;67.50;;;;;;5056347;28;20036;-64
2021/06/30 06:55:18;;;;;;;20.10;5.07;;;31.10;65.00;;;;;;5056374;28;20029;-67
2021/06/30 06:57:44;;;;;;;19.25;3.78;;;31.20;66.00;;;;;;5056219;28;20116;-68
2021/06/30 07:00:11;;;;;;;15.77;4.78;;;31.20;66.40;;;;;;5056384;28;20036;-63
2021/06/30 07:02:37;;;;;;;22.08;5.03;;;31.20;65.90;;;;;;5056146;28;20048;-68
2021/06/30 07:05:04;;;;;;;13.65;4.18;;;31.20;65.40;;;;;;5071110;28;20075;-62
2021/06/30 07:07:29;;;;;;;18.73;4.57;;;31.50;65.70;;;;;;5055962;28;20063;-64
2021/06/30 07:09:55;;;;;;;10.88;4.25;;;31.60;64.50;;;;;;5056204;28;20464;-67
2021/06/30 07:12:21;;;;;;;19.27;4.35;;;31.60;63.40;;;;;;5060310;28;20377;-61
2021/06/30 07:14:47;;;;;;;18.65;4.38;;;31.80;62.00;;;;;;5065733;28;20027;-60
2021/06/30 07:17:12;;;;;;;14.88;4.15;;;31.90;62.80;;;;;;5066679;28;20031;-64
2021/06/30 07:19:38;;;;;;;19.25;4.03;;;32.00;62.00;;;;;;5067706;28;20039;-61
2021/06/30 07:22:04;;;;;;;14.38;3.78;;;32.10;60.30;;;;;;5055492;28;20104;-62
2021/06/30 07:24:30;;;;;;;17.08;4.60;;;31.90;63.40;;;;;;5065972;28;20028;-61
2021/06/30 07:26:56;;;;;;;19.15;5.30;;;32.00;60.40;;;;;;5068551;28;20041;-62
2021/06/30 07:29:22;;;;;;;14.98;4.57;;;31.90;61.10;;;;;;5065269;28;20029;-64
2021/06/30 07:31:48;;;;;;;21.85;5.43;;;31.90;61.50;;;;;;5064131;28;20028;-65
2021/06/30 07:34:14;;;;;;;22.42;4.72;;;31.90;62.20;;;;;;5019613;28;20524;-62
2021/06/30 07:36:40;;;;;;;14.90;4.97;;;32.30;63.00;;;;;;5062789;28;20387;-65
2021/06/30 07:39:07;;;;;;;16.00;4.72;;;32.50;62.60;;;;;;5055416;28;20023;-66
2021/06/30 07:41:34;;;;;;;16.65;4.65;;;32.50;61.20;;;;;;5055118;28;20119;-64
2021/06/30 07:44:00;;;;;;;21.15;4.45;;;32.70;60.30;;;;;;5055457;28;20047;-65
2021/06/30 07:46:27;;;;;;;16.98;4.32;;;32.80;59.70;;;;;;5054579;28;20063;-64
2021/06/30 07:48:54;;;;;;;14.68;4.45;;;32.80;60.30;;;;;;5054341;28;20369;-64
2021/06/30 07:51:20;;;;;;;19.50;5.03;;;32.80;59.40;;;;;;5053457;28;20488;-62
2021/06/30 07:53:46;;;;;;;14.27;4.70;;;33.10;58.10;;;;;;5053272;28;20155;-66
2021/06/30 07:56:12;;;;;;;15.05;4.07;;;32.90;58.10;;;;;;5053386;28;20488;-62
2021/06/30 07:58:38;;;;;;;15.70;4.82;;;33.10;58.50;;;;;;5036585;28;20048;-62
2021/06/30 08:01:04;;;;;;;14.27;4.35;;;33.30;58.50;;;;;;5055268;28;20052;-66
2021/06/30 08:03:30;;;;;;;14.38;4.30;;;33.10;60.40;;;;;;5055108;28;20032;-62
2021/06/30 08:05:56;;;;;;;18.27;4.97;;;33.50;58.40;;;;;;5056295;28;20542;-66
2021/06/30 08:08:22;;;;;;;11.27;4.40;;;33.60;59.30;;;;;;5071951;28;20476;-62
2021/06/30 08:10:48;;;;;;;13.50;4.93;;;33.80;57.80;;;;;;5056409;28;20123;-66
2021/06/30 08:13:14;;;;;;;19.40;5.45;;;33.90;58.00;;;;;;5065733;28;20052;-65
2021/06/30 08:15:40;;;;;;;21.00;5.78;;;34.00;58.80;;;;;;5069828;28;20033;-64
2021/06/30 08:18:06;;;;;;;16.55;7.13;;;34.30;60.20;;;;;;5054948;28;20021;-66
2021/06/30 08:20:31;;;;;;;18.80;5.90;;;34.60;59.80;;;;;;5058352;28;20028;-66
2021/06/30 08:22:57;;;;;;;13.98;5.45;;;34.60;58.60;;;;;;5067473;28;20068;-64
2021/06/30 08:25:24;;;;;;;22.80;4.95;;;34.70;57.50;;;;;;5071228;28;20478;-63
2021/06/30 08:27:52;;;;;;;18.15;5.03;;;34.20;56.60;;;;;;5054329;28;20115;-65
2021/06/30 08:30:18;;;;;;;17.38;5.28;;;34.30;58.10;;;;;;5054669;28;20052;-63
2021/06/30 08:32:45;;;;;;;16.67;4.55;;;34.20;57.90;;;;;;5039452;28;20048;-63
2021/06/30 08:35:14;;;;;;;13.27;4.35;;;34.60;57.30;;;;;;5062062;28;20045;-63
2021/06/30 08:37:42;;;;;;;14.00;4.72;;;34.70;55.80;;;;;;5069105;28;20420;-65
2021/06/30 08:40:11;;;;;;;14.02;4.88;;;34.60;56.30;;;;;;5072491;28;20125;-65
2021/06/30 08:42:39;;;;;;;11.55;4.38;;;34.90;55.70;;;;;;5068348;28;20373;-66
2021/06/30 08:45:05;;;;;;;15.05;6.95;;;35.20;55.50;;;;;;5054237;28;20025;-63
2021/06/30 08:47:36;;;;;;;15.00;5.28;;;35.80;57.90;;;;;;5035411;28;20044;-65
2021/06/30 08:50:07;;;;;;;13.85;4.70;;;37.00;55.90;;;;;;5053976;28;20033;-65
2021/06/30 08:52:37;;;;;;;14.27;4.20;;;38.30;53.40;;;;;;5035800;28;20476;-65
2021/06/30 08:55:07;;;;;;;18.17;5.38;;;39.30;50.70;;;;;;5053931;28;20464;-66
2021/06/30 08:57:35;;;;;;;16.00;8.10;;;41.10;50.70;;;;;;5035646;28;20037;-64
2021/06/30 09:00:04;;;;;;;21.65;8.07;;;42.00;47.70;;;;;;5053873;28;20361;-66
2021/06/30 09:02:29;;;;;;;17.58;4.85;;;42.50;48.20;;;;;;5014237;28;20041;-63
2021/06/30 09:05:10;;;;;;;17.85;4.85;;;43.20;46.50;;;;;;5031743;28;20120;-66
2021/06/30 09:07:36;;;;;;;22.23;5.88;;;44.20;45.50;;;;;;5031721;28;20053;-65
2021/06/30 09:10:03;;;;;;;14.45;4.20;;;45.00;44.10;;;;;;5031814;28;20116;-62
2021/06/30 09:12:37;;;;;;;13.18;4.35;;;44.90;43.20;;;;;;5030010;28;20475;-67
2021/06/30 09:15:17;;;;;;;21.38;9.85;;;44.00;42.90;;;;;;5031076;28;20041;-66
2021/06/30 09:17:45;;;;;;;18.63;4.47;;;45.00;43.90;;;;;;5030957;28;20037;-63
2021/06/30 09:20:11;;;;;;;14.70;4.82;;;42.70;42.90;;;;;;5030133;28;20112;-64
2021/06/30 09:22:44;;;;;;;12.15;4.45;;;42.00;44.00;;;;;;5028228;28;20041;-64
2021/06/30 09:25:29;;;;;;;11.85;4.30;;;44.90;43.70;;;;;;5029640;28;20159;-66
2021/06/30 09:28:25;;;;;;;15.25;4.25;;;42.20;43.70;;;;;;5030979;28;20081;-63
2021/06/30 09:31:07;;;;;;;27.25;12.63;;;45.20;43.00;;;;;;5011521;28;20049;-63
2021/06/30 09:33:53;;;;;;;22.70;5.63;;;46.20;42.80;;;;;;5032698;28;20033;-65
2021/06/30 09:36:21;;;;;;;18.38;4.22;;;46.40;41.20;;;;;;5051261;28;20044;-66
2021/06/30 09:38:48;;;;;;;27.27;6.82;;;47.70;41.00;;;;;;5050837;28;20076;-63
2021/06/30 09:41:23;;;;;;;22.27;5.20;;;48.10;42.70;;;;;;5051384;28;20105;-66
2021/06/30 09:43:49;;;;;;;14.80;3.95;;;48.90;39.40;;;;;;5051114;28;20086;-64
2021/06/30 09:46:23;;;;;;;14.80;3.78;;;47.10;39.50;;;;;;5050911;28;20037;-64
2021/06/30 09:49:00;;;;;;;16.15;4.15;;;48.30;39.00;;;;;;5050810;28;20037;-65
2021/06/30 09:51:27;;;;;;;16.48;3.88;;;47.80;39.50;;;;;;5049347;28;20041;-65
2021/06/30 09:53:53;;;;;;;15.43;4.85;;;48.90;51.60;;;;;;5050498;28;20041;-65
2021/06/30 09:56:33;;;;;;;12.13;4.13;;;50.20;38.70;;;;;;5041686;28;20068;-65
2021/06/30 09:59:08;;;;;;;13.90;3.85;;;50.00;38.20;;;;;;5017814;28;20063;-65
2021/06/30 10:01:34;;;;;;;16.30;4.57;;;50.40;37.80;;;;;;5060256;28;20033;-64
2021/06/30 10:04:00;;;;;;;8.98;3.42;;;50.50;36.90;;;;;;5070922;28;20115;-63
2021/06/30 10:06:33;;;;;;;14.10;4.68;;;51.20;36.40;;;;;;5037499;28;20082;-66
2021/06/30 10:09:01;;;;;;;12.95;4.20;;;51.50;36.60;;;;;;5070185;28;20040;-65
2021/06/30 10:11:29;;;;;;;16.17;3.90;;;49.80;37.00;;;;;;5060076;28;20040;-65
2021/06/30 10:13:56;;;;;;;16.63;4.32;;;52.20;36.50;;;;;;5097208;28;20059;-65
2021/06/30 10:16:23;;;;;;;11.43;3.40;;;52.90;36.40;;;;;;5097281;28;20532;-65
2021/06/30 10:18:51;;;;;;;10.90;3.78;;;53.50;35.60;;;;;;5097357;28;20048;-65
2021/06/30 10:21:20;;;;;;;13.38;4.00;;;53.80;35.50;;;;;;5078093;28;20040;-63
2021/06/30 10:23:46;;;;;;;13.13;4.75;;;53.40;35.70;;;;;;5066564;28;20115;-67
2021/06/30 10:26:15;;;;;;;12.55;4.03;;;54.10;35.90;;;;;;5090168;28;20028;-58
2021/06/30 10:28:41;;;;;;;10.63;3.65;;;54.90;35.30;;;;;;5076819;28;20037;-59
2021/06/30 10:31:07;;;;;;;12.75;4.00;;;54.90;34.70;;;;;;5075786;28;20492;-58
2021/06/30 10:33:38;;;;;;;14.80;4.15;;;54.30;35.40;;;;;;5070088;28;20029;-66
2021/06/30 10:36:05;;;;;;;13.10;4.93;;;54.30;35.30;;;;;;5065670;28;20040;-67
2021/06/30 10:38:56;;;;;;;13.38;4.13;;;54.70;34.80;;;;;;5033905;28;20042;-65
2021/06/30 10:41:44;;;;;;;11.75;3.75;;;54.80;34.40;;;;;;5032954;28;20035;-64
2021/06/30 10:44:11;;;;;;;13.48;4.43;;;54.70;35.10;;;;;;5032846;28;20056;-66
2021/06/30 10:46:37;;;;;;;12.98;4.22;;;55.20;34.50;;;;;;5017055;28;20413;-65
2021/06/30 10:49:14;;;;;;;12.95;5.28;;;55.50;34.20;;;;;;5033581;28;20033;-66
2021/06/30 10:51:44;;;;;;;24.80;18.42;;;55.50;34.00;;;;;;5031645;28;20087;-66
2021/06/30 10:54:31;;;;;;;18.85;4.45;;;55.80;34.70;;;;;;5033708;28;20401;-64
2021/06/30 10:57:20;;;;;;;15.10;4.07;;;55.10;34.50;;;;;;5031606;28;20067;-65
2021/06/30 11:00:04;;;;;;;17.05;4.68;;;53.80;33.80;;;;;;5034280;28;20046;-63
2021/06/30 11:02:33;;;;;;;18.77;5.18;;;47.20;37.10;;;;;;5033198;28;20172;-66
2021/06/30 11:05:19;;;;;;;14.27;4.32;;;50.50;35.60;;;;;;5034148;28;20096;-66
2021/06/30 11:07:45;;;;;;;15.18;5.00;;;52.90;35.30;;;;;;5030619;28;20057;-65
2021/06/30 11:10:18;;;;;;;20.70;4.30;;;48.70;34.50;;;;;;5066620;28;20040;-65
2021/06/30 11:12:50;;;;;;;17.67;4.40;;;50.30;34.40;;;;;;5075899;28;20443;-67
2021/06/30 11:15:35;;;;;;;18.35;4.68;;;52.10;34.60;;;;;;5075962;28;20686;-68
2021/06/30 11:18:05;;;;;;;20.05;5.20;;;51.40;34.10;;;;;;5067788;28;20116;-67
2021/06/30 11:20:45;;;;;;;15.93;4.40;;;47.40;34.30;;;;;;5067416;28;20515;-68
2021/06/30 11:23:23;;;;;;;16.60;5.13;;;46.50;35.50;;;;;;5061615;28;20548;-63
2021/06/30 11:25:51;;;;;;;18.52;4.60;;;47.10;36.90;;;;;;5068723;28;20081;-59
2021/06/30 11:28:37;;;;;;;18.95;4.70;;;46.50;36.00;;;;;;5062927;28;20364;-60
2021/06/30 11:31:24;;;;;;;16.63;4.10;;;48.60;36.60;;;;;;5064966;28;20036;-67
2021/06/30 11:34:08;;;;;;;21.70;5.38;;;50.90;36.00;;;;;;5064515;28;20056;-64
2021/06/30 11:36:37;;;;;;;18.00;4.55;;;51.40;35.80;;;;;;5064595;28;20024;-63
2021/06/30 11:39:15;;;;;;;13.17;4.20;;;50.50;35.70;;;;;;5069928;28;20439;-63
2021/06/30 11:41:47;;;;;;;15.07;4.55;;;52.00;35.60;;;;;;5072845;28;20610;-62
2021/06/30 11:44:13;;;;;;;15.13;4.65;;;;;;;;;;5073113;28;20044;-64
2021/06/30 11:46:41;;;;;;;14.98;4.07;;;55.00;34.80;;;;;;5073170;28;20577;-61
2021/06/30 11:49:10;;;;;;;19.38;4.13;;;;;;;;;;5039444;28;20086;-59
2021/06/30 11:51:36;;;;;;;17.52;4.28;;;51.20;33.00;;;;;;5073306;28;20041;-61
2021/06/30 11:54:02;;;;;;;17.85;4.30;;;50.30;34.90;;;;;;5073192;28;20507;-61
2021/06/30 11:56:31;;;;;;;14.27;4.43;;;50.00;33.80;;;;;;5032735;28;20045;-60
2021/06/30 11:58:57;;;;;;;18.50;4.40;;;50.50;36.50;;;;;;5033051;28;20471;-62
2021/06/30 12:01:29;;;;;;;19.40;4.03;;;54.20;36.00;;;;;;5033028;28;20507;-61
2021/06/30 12:04:21;;;;;;;14.30;4.20;;;56.10;34.50;;;;;;5030931;28;20038;-60
2021/06/30 12:06:48;;;;;;;18.35;5.18;;;56.70;32.80;;;;;;5032938;28;20084;-60
2021/06/30 12:09:14;;;;;;;16.75;4.57;;;55.10;32.50;;;;;;5052709;28;20385;-60
2021/06/30 12:11:43;;;;;;;17.20;4.15;;;54.20;32.70;;;;;;5050713;28;20048;-62
2021/06/30 12:14:10;;;;;;;18.15;5.20;;;51.10;32.80;;;;;;5033065;28;20056;-62
2021/06/30 12:16:42;;;;;;;18.13;4.60;;;52.60;53.90;;;;;;5032943;28;20048;-62
2021/06/30 12:19:09;;;;;;;15.93;4.78;;;;;;;;;;5032782;28;20069;-61
2021/06/30 12:21:37;;;;;;;14.73;4.38;;;49.00;33.50;;;;;;5016187;28;20041;-62
2021/06/30 12:24:10;;;;;;;17.48;4.95;;;51.20;34.30;;;;;;5032743;28;20037;-61
2021/06/30 12:26:36;;;;;;;18.05;4.80;;;48.70;34.80;;;;;;5041505;28;20055;-60
2021/06/30 12:29:02;;;;;;;20.25;4.75;;;52.30;34.30;;;;;;5054435;28;20032;-62
2021/06/30 12:31:28;;;;;;;20.90;5.00;;;55.50;33.90;;;;;;5069530;28;20044;-62
2021/06/30 12:33:54;;;;;;;19.25;3.80;;;52.90;32.60;;;;;;5053975;28;20587;-61
2021/06/30 12:36:23;;;;;;;23.05;4.70;;;54.60;33.20;;;;;;5054331;28;20041;-61
2021/06/30 12:38:48;;;;;;;21.25;6.18;;;53.00;32.40;;;;;;5054553;28;20166;-61
2021/06/30 12:41:15;;;;;;;23.25;5.13;;;;;;;;;;5054386;28;20078;-60
2021/06/30 12:43:41;;;;;;;13.38;4.07;;;50.50;33.60;;;;;;5063646;28;20037;-61
2021/06/30 12:46:17;;;;;;;19.20;4.82;;;52.20;34.00;;;;;;5064705;28;20360;-60